createdAt,value
2023-05-06T00:00:05.550Z,54.29
2023-05-06T00:01:04.905Z,50.32
2023-05-06T00:02:05.495Z,45.67
2023-05-06T00:03:04.971Z,56.24
2023-05-06T00:04:05.005Z,55.88
2023-05-06T00:05:04.936Z,43.58
2023-05-06T00:06:04.900Z,55.37
2023-05-06T00:07:04.836Z,52.40
2023-05-06T00:08:05.588Z,49.23
2023-05-06T00:09:04.874Z,51.71
2023-05-06T00:10:04.834Z,53.05
2023-05-06T00:11:04.833Z,43.09
2023-05-06T00:12:04.821Z,42.75
2023-05-06T00:13:04.821Z,44.91
2023-05-06T00:14:04.767Z,52.40
2023-05-06T00:15:05.551Z,42.65
2023-05-06T00:16:04.865Z,51.81
2023-05-06T00:17:04.782Z,42.59
2023-05-06T00:18:04.808Z,43.59
2023-05-06T00:19:04.733Z,45.32
2023-05-06T00:20:04.751Z,44.47
2023-05-06T00:21:04.770Z,49.28
2023-05-06T00:22:05.366Z,50.65
2023-05-06T00:23:04.751Z,49.13
2023-05-06T00:24:04.696Z,49.15
2023-05-06T00:25:04.716Z,47.39
2023-05-06T00:26:04.721Z,43.70
2023-05-06T00:27:04.700Z,42.59
2023-05-06T00:28:04.691Z,53.45
2023-05-06T00:29:04.662Z,54.95
2023-05-06T00:30:04.669Z,48.73
2023-05-06T00:31:04.658Z,43.87
2023-05-06T00:32:04.787Z,54.89
2023-05-06T00:33:04.702Z,49.73
2023-05-06T00:34:04.637Z,42.66
2023-05-06T00:35:04.654Z,42.76
2023-05-06T00:36:04.608Z,50.46
2023-05-06T00:37:04.634Z,43.22
2023-05-06T00:38:04.603Z,54.36
2023-05-06T00:39:05.374Z,53.69
2023-05-06T00:40:04.656Z,45.33
2023-05-06T00:41:04.569Z,50.55
2023-05-06T00:42:04.584Z,60.88
2023-05-06T00:43:04.605Z,47.69
2023-05-06T00:44:04.614Z,51.91
2023-05-06T00:45:04.544Z,52.93
2023-05-06T00:46:05.576Z,55.30
2023-05-06T00:47:04.530Z,48.96
2023-05-06T00:48:04.650Z,60.37
2023-05-06T00:49:04.512Z,58.09
2023-05-06T00:50:04.554Z,51.94
2023-05-06T00:51:04.998Z,47.53
2023-05-06T00:52:04.494Z,49.90
2023-05-06T00:53:04.507Z,50.72
2023-05-06T00:54:04.479Z,49.00
2023-05-06T00:55:04.468Z,42.84
2023-05-06T00:56:04.496Z,52.25
2023-05-06T00:57:04.439Z,57.96
2023-05-06T00:58:04.463Z,43.60
2023-05-06T00:59:04.446Z,48.16
2023-05-06T01:00:05.441Z,51.17
2023-05-06T01:01:06.923Z,42.81
2023-05-06T01:02:05.327Z,42.88
2023-05-06T01:03:08.828Z,48.80
2023-05-06T01:04:07.826Z,50.36
2023-05-06T01:05:05.381Z,49.32
2023-05-06T01:06:08.433Z,45.12
2023-05-06T01:07:05.399Z,42.90
2023-05-06T01:08:04.380Z,43.02
2023-05-06T01:09:04.377Z,47.73
2023-05-06T01:10:04.374Z,49.46
2023-05-06T01:11:04.364Z,43.55
2023-05-06T01:12:04.379Z,62.46
2023-05-06T01:13:04.396Z,54.61
2023-05-06T01:14:04.314Z,43.88
2023-05-06T01:15:04.351Z,42.94
2023-05-06T01:16:04.330Z,54.02
2023-05-06T01:17:04.374Z,48.29
2023-05-06T01:18:04.355Z,55.68
2023-05-06T01:19:04.351Z,42.86
2023-05-06T01:20:04.277Z,49.31
2023-05-06T01:21:04.277Z,42.84
2023-05-06T01:22:04.277Z,46.69
2023-05-06T01:23:04.251Z,42.92
2023-05-06T01:24:04.239Z,49.28
2023-05-06T01:25:04.254Z,48.94
2023-05-06T01:26:04.256Z,50.18
2023-05-06T01:27:05.124Z,47.17
2023-05-06T01:28:04.235Z,43.39
2023-05-06T01:29:04.211Z,48.75
2023-05-06T01:30:04.204Z,43.43
2023-05-06T01:31:04.240Z,49.13
2023-05-06T01:32:04.175Z,43.03
2023-05-06T01:33:04.228Z,46.86
2023-05-06T01:34:04.169Z,56.01
2023-05-06T01:35:04.211Z,43.50
2023-05-06T01:36:04.174Z,42.94
2023-05-06T01:37:04.147Z,47.89
2023-05-06T01:38:04.149Z,58.71
2023-05-06T01:39:04.127Z,45.93
2023-05-06T01:40:04.128Z,46.41
2023-05-06T01:41:04.142Z,51.40
2023-05-06T01:42:04.162Z,43.43
2023-05-06T01:43:04.106Z,43.05
2023-05-06T01:44:04.082Z,42.80
2023-05-06T01:45:04.139Z,42.82
2023-05-06T01:46:04.115Z,52.70
2023-05-06T01:47:04.090Z,57.55
2023-05-06T01:48:04.124Z,43.25
2023-05-06T01:49:04.048Z,54.22
2023-05-06T01:50:04.031Z,44.86
2023-05-06T01:51:04.130Z,53.17
2023-05-06T01:52:04.079Z,43.28
2023-05-06T01:53:04.045Z,42.99
2023-05-06T01:54:03.998Z,46.74
2023-05-06T01:55:04.022Z,58.30
2023-05-06T01:56:04.002Z,50.87
2023-05-06T01:57:04.035Z,42.91
2023-05-06T01:58:04.002Z,42.83
2023-05-06T01:59:04.532Z,43.19
2023-05-06T02:00:04.002Z,46.30
2023-05-06T02:01:03.970Z,51.20
2023-05-06T02:02:04.076Z,42.98
2023-05-06T02:03:04.057Z,42.98
2023-05-06T02:04:04.147Z,43.00
2023-05-06T02:05:03.956Z,42.93
2023-05-06T02:06:03.945Z,43.84
2023-05-06T02:07:03.971Z,45.87
2023-05-06T02:08:03.924Z,43.14
2023-05-06T02:09:03.908Z,51.05
2023-05-06T02:10:04.880Z,47.77
2023-05-06T02:11:03.904Z,43.27
2023-05-06T02:12:03.888Z,43.61
2023-05-06T02:13:03.966Z,56.09
2023-05-06T02:14:03.885Z,55.58
2023-05-06T02:15:03.892Z,43.98
2023-05-06T02:16:03.870Z,43.22
2023-05-06T02:17:03.853Z,43.24
2023-05-06T02:18:03.889Z,43.32
2023-05-06T02:19:03.823Z,52.13
2023-05-06T02:20:04.404Z,47.00
2023-05-06T02:21:03.826Z,46.68
2023-05-06T02:22:03.805Z,54.06
2023-05-06T02:23:03.859Z,48.98
2023-05-06T02:24:03.816Z,50.73
2023-05-06T02:25:03.802Z,47.20
2023-05-06T02:26:03.783Z,53.54
2023-05-06T02:27:03.771Z,46.55
2023-05-06T02:28:03.774Z,46.57
2023-05-06T02:29:03.779Z,45.09
2023-05-06T02:30:03.751Z,50.74
2023-05-06T02:31:03.760Z,46.97
2023-05-06T02:32:03.730Z,49.66
2023-05-06T02:33:03.818Z,54.54
2023-05-06T02:34:03.738Z,59.22
2023-05-06T02:35:03.716Z,46.31
2023-05-06T02:36:03.736Z,58.01
2023-05-06T02:37:03.716Z,52.51
2023-05-06T02:38:04.489Z,49.20
2023-05-06T02:39:03.802Z,58.01
2023-05-06T02:40:03.719Z,47.65
2023-05-06T02:41:03.696Z,49.17
2023-05-06T02:42:03.663Z,53.30
2023-05-06T02:43:03.723Z,48.62
2023-05-06T02:44:03.660Z,48.85
2023-05-06T02:45:04.388Z,49.38
2023-05-06T02:46:04.562Z,47.85
2023-05-06T02:47:03.629Z,49.93
2023-05-06T02:48:03.672Z,59.84
2023-05-06T02:49:03.640Z,56.54
2023-05-06T02:50:03.605Z,50.19
2023-05-06T02:51:03.619Z,47.27
2023-05-06T02:52:03.580Z,51.83
2023-05-06T02:53:03.600Z,54.37
2023-05-06T02:54:03.585Z,48.85
2023-05-06T02:55:03.692Z,49.75
2023-05-06T02:56:03.549Z,51.45
2023-05-06T02:57:03.702Z,55.82
2023-05-06T02:58:03.559Z,50.49
2023-05-06T02:59:03.540Z,51.83
2023-05-06T03:00:03.549Z,58.42
2023-05-06T03:01:03.552Z,58.39
2023-05-06T03:02:03.512Z,51.00
2023-05-06T03:03:03.569Z,55.30
2023-05-06T03:04:03.517Z,55.69
2023-05-06T03:05:03.500Z,53.25
2023-05-06T03:06:04.044Z,53.90
2023-05-06T03:07:03.475Z,55.27
2023-05-06T03:08:03.506Z,60.44
2023-05-06T03:09:03.454Z,55.21
2023-05-06T03:10:03.444Z,56.40
2023-05-06T03:11:03.456Z,53.56
2023-05-06T03:12:03.433Z,58.08
2023-05-06T03:13:03.574Z,58.72
2023-05-06T03:14:03.422Z,51.67
2023-05-06T03:15:03.434Z,57.24
2023-05-06T03:16:03.426Z,61.08
2023-05-06T03:17:04.913Z,56.02
2023-05-06T03:18:03.495Z,48.99
2023-05-06T03:19:03.421Z,54.23
2023-05-06T03:20:03.397Z,48.84
2023-05-06T03:21:03.449Z,52.83
2023-05-06T03:22:03.368Z,51.66
2023-05-06T03:23:03.368Z,51.90
2023-05-06T03:24:03.379Z,54.98
2023-05-06T03:25:03.385Z,55.75
2023-05-06T03:26:03.346Z,55.88
2023-05-06T03:27:03.334Z,53.53
2023-05-06T03:28:03.323Z,53.18
2023-05-06T03:29:03.303Z,51.99
2023-05-06T03:30:03.324Z,59.50
2023-05-06T03:31:03.361Z,60.45
2023-05-06T03:32:03.308Z,58.70
2023-05-06T03:33:03.350Z,53.30
2023-05-06T03:34:03.898Z,55.10
2023-05-06T03:35:03.288Z,61.81
2023-05-06T03:36:03.299Z,61.60
2023-05-06T03:37:03.278Z,51.18
2023-05-06T03:38:03.228Z,57.56
2023-05-06T03:39:03.241Z,54.93
2023-05-06T03:40:03.223Z,59.73
2023-05-06T03:41:03.909Z,58.73
2023-05-06T03:42:03.236Z,61.79
2023-05-06T03:43:03.928Z,53.62
2023-05-06T03:44:03.915Z,51.27
2023-05-06T03:45:03.180Z,58.83
2023-05-06T03:46:03.233Z,56.88
2023-05-06T03:47:03.168Z,47.18
2023-05-06T04:04:01.819Z,53.62
2023-05-06T04:05:03.433Z,61.85
2023-05-06T04:06:02.794Z,53.87
2023-05-06T04:07:03.296Z,56.88
2023-05-06T04:08:02.791Z,46.98
2023-05-06T04:09:02.777Z,50.39
2023-05-06T04:10:02.835Z,62.36
2023-05-06T04:11:02.757Z,52.81
2023-05-06T04:12:02.772Z,47.45
2023-05-06T04:13:02.826Z,52.64
2023-05-06T04:14:02.727Z,53.74
2023-05-06T04:15:02.745Z,62.20
2023-05-06T04:16:02.893Z,59.85
2023-05-06T04:17:02.755Z,58.51
2023-05-06T04:18:02.742Z,54.01
2023-05-06T04:19:05.748Z,57.14
2023-05-06T04:20:02.713Z,52.86
2023-05-06T04:21:02.683Z,54.41
2023-05-06T04:22:02.724Z,57.87
2023-05-06T04:23:02.685Z,56.48
2023-05-06T04:24:02.688Z,54.90
2023-05-06T04:25:02.709Z,52.06
2023-05-06T04:26:02.691Z,53.84
2023-05-06T04:27:02.653Z,59.14
2023-05-06T04:28:02.651Z,58.72
2023-05-06T04:29:02.645Z,59.86
2023-05-06T04:30:02.674Z,50.00
2023-05-06T04:31:02.621Z,49.03
2023-05-06T04:32:02.717Z,55.66
2023-05-06T04:33:02.660Z,53.43
2023-05-06T04:34:02.667Z,54.94
2023-05-06T04:35:02.633Z,54.32
2023-05-06T04:36:02.614Z,56.54
2023-05-06T04:37:02.584Z,53.98
2023-05-06T04:38:02.578Z,46.69
2023-05-06T04:39:02.560Z,59.41
2023-05-06T04:40:02.549Z,56.81
2023-05-06T04:41:03.443Z,56.71
2023-05-06T04:42:02.571Z,48.26
2023-05-06T04:43:02.527Z,56.13
2023-05-06T04:44:02.520Z,55.61
2023-05-06T04:45:02.525Z,57.89
2023-05-06T04:46:02.537Z,62.67
2023-05-06T04:47:02.497Z,62.24
2023-05-06T04:48:02.519Z,47.79
2023-05-06T04:49:02.474Z,62.67
2023-05-06T04:50:02.490Z,51.70
2023-05-06T04:51:02.504Z,51.04
2023-05-06T04:52:02.517Z,56.57
2023-05-06T04:53:02.465Z,52.06
2023-05-06T04:54:02.421Z,47.89
2023-05-06T04:55:02.428Z,61.89
2023-05-06T04:56:02.467Z,62.24
2023-05-06T04:57:02.519Z,51.57
2023-05-06T04:58:34.350Z,53.07
2023-05-06T05:05:26.948Z,51.10
2023-05-06T05:06:52.298Z,54.88
2023-05-06T05:07:52.894Z,56.74
2023-05-06T05:08:55.413Z,60.16
2023-05-06T05:09:20.325Z,53.25
2023-05-06T05:10:20.305Z,55.22
2023-05-06T05:11:20.317Z,61.09
2023-05-06T05:12:20.352Z,63.23
2023-05-06T05:13:20.373Z,60.84
2023-05-06T05:14:20.301Z,59.86
2023-05-06T05:15:20.285Z,56.60
2023-05-06T05:16:20.314Z,52.34
2023-05-06T05:17:20.266Z,54.39
2023-05-06T05:18:20.311Z,59.00
2023-05-06T05:19:20.268Z,64.91
2023-05-06T05:20:20.236Z,51.15
2023-05-06T05:21:20.228Z,50.92
2023-05-06T05:22:20.278Z,52.41
2023-05-06T05:23:20.229Z,62.77
2023-05-06T05:24:20.205Z,61.19
2023-05-06T05:25:20.196Z,56.91
2023-05-06T05:26:20.180Z,58.20
2023-05-06T05:27:20.258Z,58.38
2023-05-06T05:28:20.175Z,62.90
2023-05-06T05:29:20.216Z,48.98
2023-05-06T05:30:20.161Z,61.28
2023-05-06T05:31:20.182Z,65.10
2023-05-06T05:32:20.249Z,57.89
2023-05-06T05:33:22.211Z,61.85
2023-05-06T05:34:20.153Z,62.11
2023-05-06T05:35:20.155Z,62.33
2023-05-06T05:36:20.136Z,55.49
2023-05-06T05:37:20.116Z,58.07
2023-05-06T05:38:20.148Z,65.20
2023-05-06T05:39:20.134Z,62.93
2023-05-06T05:40:20.130Z,64.98
2023-05-06T05:41:20.197Z,68.74
2023-05-06T05:42:20.079Z,65.78
2023-05-06T05:43:20.066Z,62.80
2023-05-06T05:44:20.056Z,61.89
2023-05-06T05:45:20.229Z,64.74
2023-05-06T05:46:20.085Z,62.37
2023-05-06T05:47:20.044Z,68.52
2023-05-06T05:48:20.039Z,61.50
2023-05-06T05:49:21.019Z,61.26
2023-05-06T05:50:20.238Z,56.48
2023-05-06T05:51:21.035Z,61.96
2023-05-06T05:52:20.053Z,57.43
2023-05-06T05:53:19.991Z,62.80
2023-05-06T05:54:20.034Z,62.17
2023-05-06T05:55:19.947Z,58.55
2023-05-06T05:56:19.962Z,64.30
2023-05-06T05:57:19.945Z,61.76
2023-05-06T05:58:19.933Z,59.76
2023-05-06T05:59:19.935Z,59.22
2023-05-06T06:00:19.932Z,55.47
2023-05-06T06:01:19.943Z,63.56
2023-05-06T06:02:19.988Z,56.21
2023-05-06T06:03:20.157Z,57.66
2023-05-06T06:04:19.932Z,59.92
2023-05-06T06:05:19.886Z,65.21
2023-05-06T06:06:19.899Z,64.36
2023-05-06T06:07:19.882Z,57.04
2023-05-06T06:08:19.891Z,63.09
2023-05-06T06:09:20.020Z,62.26
2023-05-06T06:10:19.857Z,64.48
2023-05-06T06:11:19.924Z,66.89
2023-05-06T06:12:19.845Z,65.70
2023-05-06T06:13:20.038Z,63.07
2023-05-06T06:14:19.862Z,63.72
2023-05-06T06:15:19.803Z,59.22
2023-05-06T06:16:19.903Z,61.98
2023-05-06T06:17:19.785Z,65.07
2023-05-06T06:18:20.421Z,56.22
2023-05-06T06:19:19.835Z,58.63
2023-05-06T06:20:20.378Z,61.93
2023-05-06T06:21:19.787Z,59.78
2023-05-06T06:22:19.754Z,65.15
2023-05-06T06:23:19.797Z,63.51
2023-05-06T06:24:19.755Z,59.00
2023-05-06T06:25:19.761Z,60.69
2023-05-06T06:26:19.859Z,59.93
2023-05-06T06:27:19.753Z,64.56
2023-05-06T06:28:19.711Z,64.22
2023-05-06T06:29:19.805Z,56.53
2023-05-06T06:30:19.733Z,58.16
2023-05-06T06:31:19.789Z,61.02
2023-05-06T06:32:19.798Z,59.24
2023-05-06T06:33:19.742Z,69.40
2023-05-06T06:34:19.695Z,58.90
2023-05-06T06:35:20.622Z,63.86
2023-05-06T06:36:19.669Z,63.37
2023-05-06T06:37:19.673Z,64.77
2023-05-06T06:38:19.659Z,66.50
2023-05-06T06:39:19.670Z,56.71
2023-05-06T06:40:53.506Z,66.23
2023-05-06T06:41:52.518Z,60.03
2023-05-06T06:42:53.557Z,62.99
2023-05-06T06:43:53.048Z,58.75
2023-05-06T06:44:19.615Z,52.56
2023-05-06T06:45:52.209Z,68.73
2023-05-06T06:46:19.638Z,65.67
2023-05-06T06:47:52.096Z,62.02
2023-05-06T06:48:19.545Z,67.62
2023-05-06T06:49:19.575Z,62.87
2023-05-06T06:50:19.540Z,69.52
2023-05-06T06:51:19.577Z,61.32
2023-05-06T06:52:19.515Z,67.17
2023-05-06T06:53:19.562Z,68.15
2023-05-06T06:54:19.522Z,64.77
2023-05-06T06:55:19.535Z,60.63
2023-05-06T06:56:19.490Z,66.21
2023-05-06T06:57:19.503Z,66.16
2023-05-06T06:58:20.498Z,67.23
2023-05-06T06:59:19.519Z,60.46
2023-05-06T07:00:19.478Z,61.35
2023-05-06T07:01:19.502Z,65.84
2023-05-06T07:02:20.694Z,62.85
2023-05-06T07:03:19.698Z,66.09
2023-05-06T07:04:19.455Z,61.36
2023-05-06T07:05:19.440Z,66.71
2023-05-06T07:06:19.443Z,60.07
2023-05-06T07:07:19.480Z,67.49
2023-05-06T07:08:19.454Z,63.24
2023-05-06T07:09:19.401Z,64.31
2023-05-06T07:10:52.112Z,63.82
2023-05-06T07:11:20.138Z,59.94
2023-05-06T07:12:19.420Z,56.57
2023-05-06T07:13:19.501Z,59.64
2023-05-06T07:14:19.404Z,59.37
2023-05-06T07:15:19.387Z,56.80
2023-05-06T07:16:19.430Z,57.82
2023-05-06T07:17:19.451Z,64.72
2023-05-06T07:18:19.385Z,63.91
2023-05-06T07:19:19.356Z,63.01
2023-05-06T07:20:19.318Z,59.55
2023-05-06T07:21:19.346Z,53.47
2023-05-06T07:22:19.348Z,57.54
2023-05-06T07:23:19.309Z,63.46
2023-05-06T07:24:19.294Z,55.43
2023-05-06T07:25:19.298Z,68.08
2023-05-06T07:26:19.262Z,65.17
2023-05-06T07:27:19.268Z,63.59
2023-05-06T07:28:19.261Z,62.03
2023-05-06T07:29:19.348Z,65.41
2023-05-06T07:30:20.929Z,65.82
2023-05-06T07:31:19.308Z,65.89
2023-05-06T07:32:19.262Z,62.71
2023-05-06T07:33:19.249Z,61.00
2023-05-06T07:34:19.225Z,65.16
2023-05-06T07:35:19.219Z,66.82
2023-05-06T07:36:19.231Z,64.80
2023-05-06T07:37:19.223Z,60.93
2023-05-06T07:38:19.254Z,65.91
2023-05-06T07:39:19.178Z,66.82
2023-05-06T07:40:19.164Z,63.94
2023-05-06T07:41:19.215Z,64.51
2023-05-06T07:42:19.170Z,67.80
2023-05-06T07:43:19.162Z,66.36
2023-05-06T07:44:19.158Z,67.17
2023-05-06T07:45:19.136Z,65.95
2023-05-06T07:46:19.224Z,64.43
2023-05-06T07:47:19.172Z,68.19
2023-05-06T07:48:20.132Z,63.30
2023-05-06T07:49:20.108Z,59.45
2023-05-06T07:50:19.098Z,61.00
2023-05-06T07:51:19.100Z,64.84
2023-05-06T07:52:19.132Z,66.95
2023-05-06T07:53:19.092Z,64.15
2023-05-06T07:54:19.086Z,69.75
2023-05-06T07:55:19.097Z,65.61
2023-05-06T07:56:19.115Z,61.11
2023-05-06T07:57:19.065Z,64.03
2023-05-06T07:58:19.078Z,64.28
2023-05-06T07:59:19.036Z,63.47
2023-05-06T08:00:19.032Z,68.44
2023-05-06T08:01:19.154Z,68.46
2023-05-06T08:02:19.084Z,61.68
2023-05-06T08:03:19.186Z,64.81
2023-05-06T08:04:19.048Z,61.15
2023-05-06T08:05:19.030Z,61.47
2023-05-06T08:06:19.013Z,65.91
2023-05-06T08:07:19.042Z,62.48
2023-05-06T08:08:19.060Z,64.36
2023-05-06T08:09:22.876Z,65.31
2023-05-06T08:10:19.971Z,64.56
2023-05-06T08:11:19.508Z,64.15
2023-05-06T08:12:19.990Z,66.42
2023-05-06T08:13:19.626Z,64.68
2023-05-06T08:14:18.955Z,68.12
2023-05-06T08:15:18.953Z,66.74
2023-05-06T08:16:19.104Z,65.57
2023-05-06T08:17:19.021Z,65.47
2023-05-06T08:18:22.867Z,64.70
2023-05-06T08:19:19.917Z,67.06
2023-05-06T08:20:18.926Z,63.70
2023-05-06T08:21:18.888Z,67.31
2023-05-06T08:22:18.888Z,57.87
2023-05-06T08:23:18.898Z,62.35
2023-05-06T08:24:18.851Z,68.21
2023-05-06T08:25:18.856Z,63.00
2023-05-06T08:26:19.731Z,63.45
2023-05-06T08:27:18.845Z,63.97
2023-05-06T08:28:18.893Z,66.77
2023-05-06T08:29:18.839Z,65.86
2023-05-06T08:30:18.814Z,62.46
2023-05-06T08:31:18.883Z,66.95
2023-05-06T08:32:18.802Z,66.55
2023-05-06T08:33:18.801Z,62.76
2023-05-06T08:34:18.804Z,65.43
2023-05-06T08:35:18.813Z,64.41
2023-05-06T08:36:18.755Z,63.68
2023-05-06T08:37:18.834Z,65.55
2023-05-06T08:38:18.792Z,64.17
2023-05-06T08:39:18.796Z,67.14
2023-05-06T08:40:18.764Z,63.47
2023-05-06T08:41:18.745Z,61.14
2023-05-06T08:42:18.714Z,64.20
2023-05-06T08:43:18.748Z,65.52
2023-05-06T08:44:19.761Z,63.18
2023-05-06T08:45:18.743Z,65.26
2023-05-06T08:46:18.890Z,65.91
2023-05-06T08:47:18.692Z,66.54
2023-05-06T08:48:18.706Z,64.57
2023-05-06T08:49:18.781Z,63.22
2023-05-06T08:50:18.671Z,63.79
2023-05-06T08:51:18.673Z,65.98
2023-05-06T08:52:18.696Z,63.93
2023-05-06T08:53:18.682Z,62.64
2023-05-06T08:54:18.660Z,61.22
2023-05-06T08:55:18.657Z,60.33
2023-05-06T08:56:18.653Z,63.25
2023-05-06T08:57:18.638Z,62.69
2023-05-06T08:58:18.601Z,67.58
2023-05-06T08:59:18.641Z,65.68
2023-05-06T09:00:18.640Z,64.22
2023-05-06T09:01:18.646Z,67.64
2023-05-06T09:02:18.640Z,68.23
2023-05-06T09:03:18.867Z,63.17
2023-05-06T09:04:51.538Z,61.95
2023-05-06T09:05:18.544Z,58.99
2023-05-06T09:06:18.536Z,59.98
2023-05-06T09:07:18.641Z,66.41
2023-05-06T09:08:18.538Z,59.03
2023-05-06T09:09:18.536Z,63.90
2023-05-06T09:10:18.557Z,67.13
2023-05-06T09:11:18.511Z,67.04
2023-05-06T09:12:18.527Z,64.45
2023-05-06T09:13:18.675Z,63.93
2023-05-06T09:14:18.526Z,65.53
2023-05-06T09:15:18.499Z,66.03
2023-05-06T09:16:18.562Z,64.86
2023-05-06T09:17:19.179Z,61.75
2023-05-06T09:18:19.265Z,64.72
2023-05-06T09:19:18.464Z,63.86
2023-05-06T09:20:18.682Z,60.29
2023-05-06T09:21:18.447Z,67.27
2023-05-06T09:22:18.444Z,61.16
2023-05-06T09:23:18.483Z,64.80
2023-05-06T09:24:18.455Z,63.80
2023-05-06T09:25:18.404Z,61.75
2023-05-06T09:26:18.416Z,65.52
2023-05-06T09:27:18.429Z,66.31
2023-05-06T09:28:18.390Z,65.02
2023-05-06T09:29:18.403Z,65.35
2023-05-06T09:30:18.449Z,66.31
2023-05-06T09:31:18.395Z,62.54
2023-05-06T09:32:18.394Z,64.48
2023-05-06T09:33:18.377Z,63.15
2023-05-06T09:34:18.349Z,59.88
2023-05-06T09:35:18.365Z,68.23
2023-05-06T09:36:18.477Z,63.20
2023-05-06T09:37:18.357Z,60.67
2023-05-06T09:38:18.424Z,65.80
2023-05-06T09:39:18.326Z,66.95
2023-05-06T09:40:18.432Z,67.16
2023-05-06T09:41:18.314Z,65.73
2023-05-06T09:42:18.319Z,66.18
2023-05-06T09:43:18.297Z,67.38
2023-05-06T09:44:18.282Z,64.41
2023-05-06T09:45:18.278Z,61.48
2023-05-06T09:46:19.303Z,65.81
2023-05-06T09:47:18.307Z,65.01
2023-05-06T09:48:18.259Z,65.69
2023-05-06T09:49:18.245Z,62.94
2023-05-06T09:50:18.313Z,62.43
2023-05-06T09:51:18.212Z,55.38
2023-05-06T09:52:22.160Z,65.34
2023-05-06T09:53:18.249Z,65.81
2023-05-06T09:54:18.216Z,62.80
2023-05-06T09:55:18.210Z,61.31
2023-05-06T09:56:18.207Z,63.65
2023-05-06T09:57:18.190Z,62.41
2023-05-06T09:58:18.195Z,65.15
2023-05-06T09:59:18.209Z,65.37
2023-05-06T10:00:18.235Z,62.20
2023-05-06T10:01:32.460Z,67.30
2023-05-06T10:02:20.357Z,65.81
2023-05-06T10:03:50.880Z,64.50
2023-05-06T10:04:50.320Z,62.53
2023-05-06T10:05:50.787Z,66.72
2023-05-06T10:06:51.291Z,62.76
2023-05-06T10:07:50.876Z,66.23
2023-05-06T10:08:50.819Z,64.52
2023-05-06T10:09:50.061Z,66.03
2023-05-06T10:10:50.421Z,63.88
2023-05-06T10:11:50.988Z,58.80
2023-05-06T10:12:50.964Z,68.23
2023-05-06T10:13:18.152Z,65.69
2023-05-06T10:14:18.079Z,65.60
2023-05-06T10:15:18.145Z,64.78
2023-05-06T10:16:18.139Z,65.68
2023-05-06T10:17:19.094Z,65.05
2023-05-06T10:18:18.073Z,58.16
2023-05-06T10:19:18.082Z,64.99
2023-05-06T10:20:18.070Z,63.87
2023-05-06T10:21:18.955Z,61.50
2023-05-06T10:22:18.035Z,65.97
2023-05-06T10:23:18.104Z,63.51
2023-05-06T10:24:18.000Z,66.21
2023-05-06T10:25:18.008Z,63.74
2023-05-06T10:26:18.014Z,67.84
2023-05-06T10:27:17.964Z,64.05
2023-05-06T10:28:25.090Z,64.11
2023-05-06T10:29:18.962Z,55.99
2023-05-06T10:30:18.030Z,66.59
2023-05-06T10:31:17.992Z,65.13
2023-05-06T10:32:17.941Z,67.37
2023-05-06T10:33:17.935Z,68.00
2023-05-06T10:34:17.926Z,64.40
2023-05-06T10:35:17.924Z,60.23
2023-05-06T10:36:18.575Z,71.13
2023-05-06T10:37:17.918Z,70.64
2023-05-06T10:38:17.896Z,71.92
2023-05-06T10:39:17.970Z,72.34
2023-05-06T10:40:17.977Z,64.66
2023-05-06T10:41:17.872Z,64.05
2023-05-06T10:42:17.856Z,70.64
2023-05-06T10:43:17.847Z,68.92
2023-05-06T10:44:17.847Z,68.19
2023-05-06T10:45:17.866Z,74.53
2023-05-06T10:46:17.919Z,75.48
2023-05-06T10:47:17.822Z,73.70
2023-05-06T10:48:17.802Z,71.62
2023-05-06T10:49:17.795Z,72.64
2023-05-06T10:50:17.868Z,64.18
2023-05-06T10:51:17.880Z,65.68
2023-05-06T10:52:17.804Z,62.03
2023-05-06T10:53:17.829Z,63.05
2023-05-06T10:54:17.761Z,66.36
2023-05-06T10:55:19.017Z,57.66
2023-05-06T10:56:18.581Z,63.85
2023-05-06T10:57:17.746Z,60.94
2023-05-06T10:58:17.766Z,64.03
2023-05-06T10:59:17.717Z,57.95
2023-05-06T11:00:18.521Z,64.13
2023-05-06T11:01:17.824Z,63.53
2023-05-06T11:02:17.756Z,67.27
2023-05-06T11:03:17.714Z,63.06
2023-05-06T11:04:18.400Z,65.10
2023-05-06T11:05:18.528Z,68.50
2023-05-06T11:06:18.701Z,66.46
2023-05-06T11:07:17.718Z,65.32
2023-05-06T11:08:17.649Z,63.53
2023-05-06T11:09:17.700Z,62.58
2023-05-06T11:10:17.661Z,65.48
2023-05-06T11:11:17.731Z,63.48
2023-05-06T11:12:17.664Z,63.15
2023-05-06T11:13:17.721Z,61.79
2023-05-06T11:14:18.388Z,66.23
2023-05-06T11:15:17.644Z,59.66
2023-05-06T11:16:17.629Z,62.87
2023-05-06T11:17:17.602Z,65.70
2023-05-06T11:18:17.600Z,66.27
2023-05-06T11:19:17.592Z,63.70
2023-05-06T11:20:17.593Z,65.84
2023-05-06T11:21:17.574Z,60.88
2023-05-06T11:22:17.592Z,56.65
2023-05-06T11:23:17.585Z,65.51
2023-05-06T11:24:50.000Z,56.88
2023-05-06T11:25:17.600Z,65.91
2023-05-06T11:26:18.401Z,61.85
2023-05-06T11:27:17.626Z,63.24
2023-05-06T11:28:17.579Z,67.78
2023-05-06T11:29:18.430Z,63.72
2023-05-06T11:30:17.508Z,64.16
2023-05-06T11:31:17.554Z,64.34
2023-05-06T11:32:17.512Z,62.55
2023-05-06T11:33:17.495Z,60.46
2023-05-06T11:34:17.485Z,62.04
2023-05-06T11:35:17.476Z,64.28
2023-05-06T11:36:17.506Z,59.30
2023-05-06T11:37:18.049Z,62.27
2023-05-06T11:38:17.472Z,67.44
2023-05-06T11:39:18.110Z,66.21
2023-05-06T11:40:18.399Z,65.43
2023-05-06T11:41:17.446Z,59.78
2023-05-06T11:42:19.552Z,59.39
2023-05-06T11:43:17.476Z,60.33
2023-05-06T11:44:17.976Z,68.03
2023-05-06T11:45:17.476Z,65.54
2023-05-06T11:46:17.457Z,66.11
2023-05-06T11:47:17.540Z,63.66
2023-05-06T11:48:17.421Z,59.19
2023-05-06T11:49:17.406Z,67.01
2023-05-06T11:50:17.391Z,61.30
2023-05-06T11:51:17.395Z,67.19
2023-05-06T11:52:17.384Z,66.16
2023-05-06T11:53:17.327Z,65.11
2023-05-06T11:54:17.344Z,65.58
2023-05-06T11:55:49.381Z,63.96
2023-05-06T11:56:17.336Z,63.72
2023-05-06T11:57:17.321Z,64.84
2023-05-06T11:58:18.031Z,61.90
2023-05-06T11:59:18.160Z,65.46
2023-05-06T12:00:17.290Z,63.52
2023-05-06T12:01:17.651Z,64.53
2023-05-06T12:02:18.322Z,62.36
2023-05-06T12:03:17.369Z,64.31
2023-05-06T12:04:17.303Z,64.94
2023-05-06T12:05:17.247Z,62.02
2023-05-06T12:06:17.303Z,63.43
2023-05-06T12:07:18.140Z,63.18
2023-05-06T12:08:26.874Z,63.15
2023-05-06T12:09:19.247Z,64.62
2023-05-06T12:10:17.287Z,64.95
2023-05-06T12:11:17.225Z,65.78
2023-05-06T12:12:17.273Z,67.39
2023-05-06T12:13:17.225Z,63.48
2023-05-06T12:14:17.188Z,64.03
2023-05-06T12:15:17.354Z,62.27
2023-05-06T12:16:17.256Z,61.63
2023-05-06T12:17:17.209Z,65.43
2023-05-06T12:18:17.181Z,62.00
2023-05-06T12:19:17.168Z,58.99
2023-05-06T12:20:17.200Z,60.81
2023-05-06T12:21:17.151Z,58.78
2023-05-06T12:22:17.184Z,60.88
2023-05-06T12:23:17.152Z,56.97
2023-05-06T12:24:17.174Z,61.29
2023-05-06T12:25:18.134Z,64.52
2023-05-06T12:26:17.109Z,61.46
2023-05-06T12:27:17.124Z,59.18
2023-05-06T12:28:17.108Z,63.34
2023-05-06T12:29:17.123Z,63.04
2023-05-06T12:30:17.090Z,66.15
2023-05-06T12:31:17.221Z,63.32
2023-05-06T12:32:17.058Z,64.28
2023-05-06T12:33:17.063Z,62.06
2023-05-06T12:34:18.091Z,58.89
2023-05-06T12:35:17.048Z,60.91
2023-05-06T12:36:17.066Z,65.18
2023-05-06T12:37:17.044Z,62.46
2023-05-06T12:38:17.052Z,60.55
2023-05-06T12:39:17.047Z,64.77
2023-05-06T12:40:17.017Z,61.35
2023-05-06T12:41:50.508Z,62.71
2023-05-06T12:42:17.023Z,62.87
2023-05-06T12:43:16.999Z,64.28
2023-05-06T12:44:17.001Z,61.93
2023-05-06T12:45:16.975Z,59.29
2023-05-06T12:46:17.045Z,62.67
2023-05-06T12:47:17.012Z,62.39
2023-05-06T12:48:16.967Z,64.34
2023-05-06T12:49:16.983Z,61.73
2023-05-06T12:50:16.938Z,63.38
2023-05-06T12:51:16.996Z,65.45
2023-05-06T12:52:16.944Z,64.84
2023-05-06T12:53:16.945Z,59.50
2023-05-06T12:54:16.940Z,66.00
2023-05-06T12:55:16.953Z,65.83
2023-05-06T12:56:16.903Z,65.31
2023-05-06T12:57:16.927Z,63.12
2023-05-06T12:58:16.937Z,65.50
2023-05-06T12:59:16.882Z,66.24
2023-05-06T13:00:16.889Z,63.10
2023-05-06T13:01:16.938Z,60.94
2023-05-06T13:02:16.961Z,62.69
2023-05-06T13:03:17.074Z,62.49
2023-05-06T13:04:16.871Z,63.53
2023-05-06T13:05:17.729Z,62.64
2023-05-06T13:06:17.639Z,59.66
2023-05-06T13:07:16.836Z,64.00
2023-05-06T13:08:16.908Z,66.05
2023-05-06T13:09:17.489Z,58.48
2023-05-06T13:10:16.823Z,62.59
2023-05-06T13:11:16.824Z,59.14
2023-05-06T13:12:16.813Z,61.51
2023-05-06T13:13:17.020Z,66.73
2023-05-06T13:14:16.783Z,63.19